Time;durP1;ratioP1;P1;durP2;ratioP2;P2;SDS_P1;SDS_P2;PMS_P1;PMS_P2;Temp;Humidity;BMP_temperature;BMP_pressure;BME280_temperature;BME280_humidity;BME280_pressure;Samples;Min_cycle;Max_cycle;Signal;HPM_P1;HPM_P2
2022/01/25 00:09:09;;;;;;;21.40;16.20;;;;;;101826.63;;;;106590;1297;63454;-33
2022/01/25 00:25:59;;;;;;;20.90;15.80;;;;;;101821.43;;;;106473;1297;63342;-34
2022/01/25 00:31:10;;;;;;;20.20;15.10;;;;;;101814.45;;;;106524;1299;68246;-35
2022/01/25 00:33:40;;;;;;;20.30;15.20;;;;;;101809.02;;;;106594;1297;63817;-35
2022/01/25 00:36:12;;;;;;;21.90;15.80;;;;;;101806.54;;;;106555;1297;63484;-34
2022/01/25 00:38:39;;;;;;;19.90;15.90;;;;;;101800.56;;;;106567;1297;63422;-34
2022/01/25 00:41:06;;;;;;;19.40;15.10;;;;;;101795.86;;;;106606;1296;63375;-37
2022/01/25 00:43:34;;;;;;;21.50;15.50;;;;;;101792.65;;;;106579;1297;66897;-37
2022/01/25 00:46:08;;;;;;;19.30;15.70;;;;;;101787.02;;;;106553;1297;63509;-37
2022/01/25 00:51:20;;;;;;;19.30;15.00;;;;;;101781.19;;;;106509;1300;63451;-33
2022/01/25 00:56:31;;;;;;;19.70;14.30;;;;;;101784.27;;;;106666;1296;68445;-36
2022/01/25 00:59:05;;;;;;;19.70;14.80;;;;;;101784.48;;;;106631;1296;63498;-37
2022/01/25 01:01:34;;;;;;;19.50;14.70;;;;;;101778.84;;;;106661;1296;63285;-37
2022/01/25 01:04:01;;;;;;;20.10;15.10;;;;;;101781.13;;;;105590;1297;1413589;-37
2022/01/25 01:06:28;;;;;;;20.40;14.60;;;;;;101778.97;;;;106657;1296;63406;-37
2022/01/25 01:08:56;;;;;;;19.70;14.40;;;;;;101779.61;;;;106653;1296;66964;-37
2022/01/25 01:11:36;;;;;;;19.00;14.30;;;;;;101777.05;;;;106532;1297;63500;-34
2022/01/25 01:17:08;;;;;;;19.60;15.00;;;;;;101771.91;;;;106628;1297;63457;-37
2022/01/25 01:31:00;;;;;;;18.50;13.90;;;;;;101759.62;;;;106629;1297;63291;-37
2022/01/25 01:34:03;;;;;;;19.10;14.70;;;;;;101759.03;;;;106571;1296;63377;-36
2022/01/25 01:47:37;;;;;;;19.60;14.00;;;;;;101741.06;;;;106171;1302;63460;-38
2022/01/25 01:50:11;;;;;;;19.90;14.20;;;;;;101738.80;;;;106428;1297;68250;-37
2022/01/25 01:52:39;;;;;;;17.10;13.40;;;;;;101738.48;;;;106661;1297;63534;-34
2022/01/25 01:55:08;;;;;;;20.20;14.40;;;;;;101735.81;;;;106633;1297;63385;-34
2022/01/25 01:57:35;;;;;;;19.10;13.50;;;;;;101732.62;;;;106617;1296;63351;-35
2022/01/25 02:00:06;;;;;;;18.70;14.00;;;;;;101730.42;;;;106650;1297;63334;-33
2022/01/25 02:02:33;;;;;;;18.10;13.90;;;;;;101728.58;;;;106653;1296;66896;-33
2022/01/25 02:05:00;;;;;;;18.10;13.60;;;;;;101726.25;;;;106646;1297;63442;-34
2022/01/25 02:07:28;;;;;;;19.90;14.40;;;;;;101727.09;;;;106651;1296;63385;-33
2022/01/25 02:09:55;;;;;;;16.90;13.10;;;;;;101730.07;;;;106623;1296;63445;-33
2022/01/25 02:12:22;;;;;;;17.10;13.00;;;;;;101732.74;;;;106669;1296;63368;-37
2022/01/25 02:14:51;;;;;;;19.70;14.00;;;;;;101725.27;;;;106591;1297;65810;-37
2022/01/25 02:17:41;;;;;;;17.90;13.20;;;;;;101722.70;;;;106627;1297;63336;-37
2022/01/25 02:23:21;;;;;;;18.60;13.70;;;;;;101721.53;;;;106640;1295;63493;-34
2022/01/25 02:25:56;;;;;;;17.70;13.50;;;;;;101720.36;;;;106655;1296;63359;-34
2022/01/25 02:28:28;;;;;;;17.60;12.70;;;;;;101714.98;;;;106667;1296;68280;-33
2022/01/25 02:30:56;;;;;;;18.80;13.40;;;;;;101710.98;;;;106652;1296;63576;-37
2022/01/25 02:33:28;;;;;;;17.70;12.60;;;;;;101700.48;;;;106466;1297;63413;-36
2022/01/25 02:35:57;;;;;;;17.10;13.50;;;;;;101697.04;;;;106643;1296;63419;-36
2022/01/25 02:38:28;;;;;;;17.50;12.50;;;;;;101687.02;;;;106654;1295;63402;-36
2022/01/25 02:40:57;;;;;;;16.30;13.10;;;;;;101687.18;;;;106608;1297;67308;-34
2022/01/25 02:43:28;;;;;;;18.90;13.10;;;;;;101692.98;;;;106639;1296;63336;-34
2022/01/25 02:48:58;;;;;;;16.30;12.40;;;;;;101693.67;;;;106650;1296;63379;-39
2022/01/25 02:51:34;;;;;;;16.90;12.90;;;;;;101696.24;;;;106673;1296;63404;-34
2022/01/25 02:54:03;;;;;;;17.10;12.20;;;;;;101695.77;;;;106671;1297;66803;-34
2022/01/25 02:56:31;;;;;;;16.30;12.40;;;;;;101697.95;;;;106538;1297;63436;-37
2022/01/25 02:58:58;;;;;;;15.10;11.90;;;;;;101700.97;;;;106645;1297;63427;-36
2022/01/25 03:01:28;;;;;;;15.60;12.30;;;;;;101695.95;;;;106626;1296;63300;-39
2022/01/25 03:03:56;;;;;;;15.90;12.00;;;;;;101689.15;;;;106671;1296;63332;-39
2022/01/25 03:06:24;;;;;;;18.90;12.80;;;;;;101684.52;;;;106646;1295;65601;-34
2022/01/25 03:08:54;;;;;;;16.50;12.80;;;;;;101685.07;;;;106651;1297;63496;-37
2022/01/25 03:11:24;;;;;;;17.40;12.10;;;;;;101685.02;;;;106634;1297;63491;-34
2022/01/25 03:13:55;;;;;;;14.70;11.40;;;;;;101677.85;;;;106629;1296;63421;-34
2022/01/25 03:17:02;;;;;;;16.70;11.90;;;;;;101673.85;;;;106683;1297;63460;-34
2022/01/25 03:22:33;;;;;;;15.80;11.70;;;;;;101662.77;;;;106644;1296;63468;-36
2022/01/25 03:25:00;;;;;;;15.20;11.30;;;;;;101657.06;;;;106544;1297;63549;-37
2022/01/25 03:27:30;;;;;;;16.60;11.20;;;;;;101661.90;;;;106666;1296;63457;-33
2022/01/25 03:29:58;;;;;;;17.20;11.80;;;;;;101658.09;;;;106653;1296;63388;-37
2022/01/25 03:32:25;;;;;;;16.70;11.40;;;;;;101649.25;;;;106662;1297;66970;-34
2022/01/25 03:34:52;;;;;;;15.30;11.70;;;;;;101642.45;;;;106649;1297;63365;-35
2022/01/25 03:37:19;;;;;;;16.50;11.80;;;;;;101645.10;;;;106665;1297;63391;-36
2022/01/25 03:39:49;;;;;;;14.90;11.40;;;;;;101647.42;;;;106653;1297;63448;-40
2022/01/25 03:42:18;;;;;;;17.40;12.00;;;;;;101642.27;;;;106656;1297;63461;-34
2022/01/25 03:44:46;;;;;;;13.40;10.70;;;;;;101642.86;;;;106661;1296;65639;-34
2022/01/25 03:47:17;;;;;;;16.10;11.20;;;;;;101647.29;;;;106504;1297;63539;-36
2022/01/25 03:49:52;;;;;;;14.10;10.50;;;;;;101647.52;;;;106483;1297;63546;-37
2022/01/25 03:52:32;;;;;;;15.60;11.30;;;;;;101647.09;;;;106650;1296;63454;-33
2022/01/25 03:54:59;;;;;;;15.00;10.90;;;;;;101647.02;;;;106571;1296;63344;-34
2022/01/25 03:57:29;;;;;;;14.70;11.40;;;;;;101641.66;;;;106633;1296;65795;-42
2022/01/25 03:59:59;;;;;;;14.50;10.60;;;;;;101637.09;;;;106629;1297;63542;-42
2022/01/25 04:02:31;;;;;;;14.80;10.40;;;;;;101631.06;;;;106657;1296;63392;-42
2022/01/25 04:05:00;;;;;;;12.50;10.30;;;;;;101632.52;;;;106572;1297;63463;-42
2022/01/25 04:07:44;;;;;;;14.60;10.60;;;;;;101628.33;;;;106653;1295;63411;-43
2022/01/25 04:10:13;;;;;;;14.90;10.60;;;;;;101623.86;;;;106659;1295;66962;-43
2022/01/25 04:12:43;;;;;;;15.00;10.40;;;;;;101624.44;;;;106638;1296;63471;-48
2022/01/25 04:15:10;;;;;;;15.10;11.20;;;;;;101621.80;;;;106629;1295;64026;-45
2022/01/25 04:17:39;;;;;;;14.10;10.30;;;;;;101604.21;;;;106645;1297;63467;-44
2022/01/25 04:20:18;;;;;;;13.80;10.60;;;;;;101594.39;;;;106565;1297;63367;-42
2022/01/25 04:25:33;;;;;;;15.10;10.70;;;;;;101588.54;;;;106637;1296;63346;-42
2022/01/25 04:28:01;;;;;;;12.80;10.10;;;;;;101585.84;;;;106653;1297;63406;-43
2022/01/25 04:30:31;;;;;;;14.70;10.30;;;;;;101583.53;;;;106656;1296;63493;-44
2022/01/25 04:33:02;;;;;;;15.40;10.60;;;;;;101582.16;;;;106632;1296;63300;-44
2022/01/25 04:49:18;;;;;;;15.10;10.20;;;;;;101569.92;;;;106639;1297;66855;-43
2022/01/25 04:51:52;;;;;;;14.60;10.20;;;;;;101561.81;;;;106598;1297;63490;-43
2022/01/25 04:59:31;;;;;;;13.60;10.00;;;;;;101557.28;;;;106659;1296;63349;-45
2022/01/25 05:02:07;;;;;;;14.60;10.00;;;;;;101554.50;;;;106570;1295;68242;-43
2022/01/25 05:04:43;;;;;;;13.80;9.50;;;;;;101554.44;;;;106648;1296;63503;-51
2022/01/25 05:09:49;;;;;;;15.50;10.20;;;;;;101553.63;;;;106639;1295;63386;-45
2022/01/25 05:12:17;;;;;;;15.10;9.50;;;;;;101549.89;;;;106659;1297;63440;-44
2022/01/25 05:14:58;;;;;;;12.10;9.30;;;;;;101543.73;;;;106634;1297;65510;-44
2022/01/25 05:17:35;;;;;;;12.40;9.50;;;;;;101538.19;;;;106677;1296;63404;-44
2022/01/25 05:22:52;;;;;;;11.50;9.60;;;;;;101552.06;;;;106641;1296;64396;-43
2022/01/25 05:25:19;;;;;;;13.70;10.30;;;;;;101549.33;;;;106668;1297;63290;-43
2022/01/25 05:27:49;;;;;;;13.20;9.60;;;;;;101547.41;;;;106522;1297;67401;-43
2022/01/25 05:30:17;;;;;;;11.70;9.10;;;;;;101546.46;;;;106640;1296;63384;-43
2022/01/25 05:32:47;;;;;;;14.70;9.50;;;;;;101548.06;;;;106658;1297;63540;-43
2022/01/25 05:35:14;;;;;;;12.50;8.60;;;;;;101540.20;;;;106546;1296;63401;-43
2022/01/25 05:37:44;;;;;;;12.90;8.60;;;;;;101536.57;;;;106659;1296;63376;-44
2022/01/25 05:40:16;;;;;;;12.90;9.40;;;;;;101538.22;;;;106671;1296;67338;-43
2022/01/25 05:43:52;;;;;;;13.50;9.50;;;;;;101532.92;;;;106572;1296;63492;-44
2022/01/25 05:45:54;;;;;;;13.10;8.50;;;;;;101535.10;;;;106633;1297;63459;-35
2022/01/25 05:48:23;;;;;;;11.60;8.80;;;;;;101532.85;;;;106652;1297;63454;-34
2022/01/25 05:50:54;;;;;;;12.80;9.20;;;;;;101533.56;;;;106659;1296;63449;-36
2022/01/25 05:53:21;;;;;;;12.80;8.50;;;;;;101539.19;;;;106631;1297;67086;-37
2022/01/25 05:55:53;;;;;;;13.00;8.80;;;;;;101533.46;;;;106626;1297;63373;-40
2022/01/25 05:58:23;;;;;;;11.50;8.70;;;;;;101524.69;;;;106648;1296;63358;-35
2022/01/25 06:00:51;;;;;;;12.50;8.90;;;;;;101524.52;;;;106633;1296;63332;-38
2022/01/25 06:03:18;;;;;;;11.90;8.10;;;;;;101529.80;;;;106665;1296;63388;-38
2022/01/25 06:05:45;;;;;;;11.90;8.40;;;;;;101534.30;;;;106650;1296;67220;-43
2022/01/25 06:08:13;;;;;;;11.80;8.00;;;;;;101531.96;;;;106623;1295;63514;-34
2022/01/25 06:10:43;;;;;;;12.50;8.60;;;;;;101525.14;;;;106640;1297;63468;-35
2022/01/25 06:13:10;;;;;;;12.20;8.40;;;;;;101530.02;;;;106632;1296;63367;-35
2022/01/25 06:15:38;;;;;;;11.90;8.90;;;;;;101528.85;;;;106664;1297;63326;-37
2022/01/25 06:18:05;;;;;;;12.70;8.90;;;;;;101527.66;;;;106539;1297;68283;-38
2022/01/25 06:20:33;;;;;;;11.20;7.60;;;;;;101522.94;;;;106628;1296;63362;-40
2022/01/25 06:23:00;;;;;;;13.00;8.70;;;;;;101526.36;;;;106619;1296;63358;-34
2022/01/25 06:25:28;;;;;;;11.90;8.30;;;;;;101527.68;;;;106637;1296;63440;-41
2022/01/25 06:27:58;;;;;;;11.60;8.70;;;;;;101528.56;;;;106656;1297;63376;-35
2022/01/25 06:30:26;;;;;;;12.00;8.40;;;;;;101522.57;;;;106657;1296;65824;-36
2022/01/25 06:32:56;;;;;;;11.90;8.70;;;;;;101520.50;;;;106569;1297;63511;-35
2022/01/25 06:35:23;;;;;;;10.80;7.80;;;;;;101516.86;;;;106514;1297;63402;-40
2022/01/25 06:37:53;;;;;;;12.60;8.90;;;;;;101512.71;;;;106631;1296;63363;-38
2022/01/25 06:40:21;;;;;;;11.00;8.30;;;;;;101508.96;;;;106689;1296;63316;-37
2022/01/25 06:42:48;;;;;;;14.50;8.90;;;;;;101506.61;;;;106577;1297;66774;-37
2022/01/25 06:45:18;;;;;;;12.00;8.50;;;;;;101504.23;;;;106644;1296;63441;-35
2022/01/25 06:47:50;;;;;;;12.50;8.60;;;;;;101498.79;;;;106645;1297;63394;-36
2022/01/25 06:50:20;;;;;;;11.20;8.00;;;;;;101495.81;;;;106516;1297;63467;-38
2022/01/25 06:52:51;;;;;;;12.30;8.10;;;;;;101493.30;;;;106655;1296;63416;-37
2022/01/25 06:55:19;;;;;;;11.70;8.60;;;;;;101490.59;;;;106554;1297;66733;-35
2022/01/25 06:57:47;;;;;;;12.60;8.90;;;;;;101491.29;;;;106630;1296;63471;-35
2022/01/25 07:00:18;;;;;;;11.00;8.00;;;;;;101491.63;;;;106545;1296;63383;-36
2022/01/25 07:02:46;;;;;;;12.50;8.20;;;;;;101493.33;;;;106630;1297;63493;-38
2022/01/25 07:05:13;;;;;;;11.10;7.70;;;;;;101495.36;;;;106667;1296;63380;-36
2022/01/25 07:07:41;;;;;;;12.90;8.40;;;;;;101495.37;;;;106595;1297;67386;-41
2022/01/25 07:10:09;;;;;;;12.50;9.10;;;;;;101489.52;;;;106411;1297;63591;-42
2022/01/25 07:12:36;;;;;;;11.90;8.30;;;;;;101492.70;;;;106546;1297;63388;-40
2022/01/25 07:15:04;;;;;;;12.70;8.50;;;;;;101493.91;;;;106507;1299;63493;-33
2022/01/25 07:17:32;;;;;;;13.00;8.60;;;;;;101493.27;;;;106612;1297;63846;-40
2022/01/25 07:20:00;;;;;;;11.70;8.50;;;;;;101489.52;;;;106564;1297;65769;-42
2022/01/25 07:22:27;;;;;;;12.40;9.20;;;;;;101492.20;;;;106574;1297;63439;-43
2022/01/25 07:24:54;;;;;;;11.90;7.90;;;;;;101491.31;;;;106572;1296;63357;-43
2022/01/25 07:27:22;;;;;;;12.40;8.00;;;;;;101492.43;;;;106554;1297;63406;-42
2022/01/25 07:29:49;;;;;;;11.90;8.30;;;;;;101494.60;;;;106563;1297;63433;-42
2022/01/25 07:32:16;;;;;;;11.80;8.10;;;;;;101491.86;;;;106529;1297;66772;-42
2022/01/25 07:34:44;;;;;;;12.40;9.50;;;;;;101490.93;;;;106446;1297;63406;-42
2022/01/25 07:37:14;;;;;;;13.40;9.60;;;;;;101480.06;;;;106444;1297;63515;-45
2022/01/25 07:39:42;;;;;;;12.20;9.30;;;;;;101476.52;;;;106514;1297;63457;-42
2022/01/25 07:42:10;;;;;;;16.50;10.90;;;;;;101481.76;;;;106477;1297;63538;-40
2022/01/25 07:44:39;;;;;;;14.40;10.60;;;;;;101483.70;;;;106572;1297;66797;-48
2022/01/25 07:47:07;;;;;;;14.60;10.30;;;;;;101474.84;;;;106571;1297;63419;-38
2022/01/25 07:49:35;;;;;;;15.50;10.80;;;;;;101469.83;;;;106459;1297;63542;-45
2022/01/25 07:52:04;;;;;;;14.00;10.40;;;;;;101469.70;;;;106459;1297;63492;-32
2022/01/25 07:54:31;;;;;;;12.30;9.60;;;;;;101471.14;;;;106437;1299;63402;-48
2022/01/25 07:56:58;;;;;;;13.50;9.60;;;;;;101463.51;;;;106556;1296;66995;-44
2022/01/25 07:59:26;;;;;;;13.00;9.70;;;;;;101465.41;;;;106580;1297;63375;-47
2022/01/25 08:01:53;;;;;;;14.40;10.40;;;;;;101462.75;;;;106583;1297;63464;-46
2022/01/25 08:04:20;;;;;;;14.20;10.00;;;;;;101465.81;;;;106570;1297;63445;-43
2022/01/25 08:06:48;;;;;;;13.70;10.10;;;;;;101464.02;;;;106606;1297;63406;-34
2022/01/25 08:09:15;;;;;;;11.80;9.20;;;;;;101458.77;;;;106449;1297;67020;-41
2022/01/25 08:11:43;;;;;;;13.60;10.00;;;;;;101461.55;;;;106571;1297;63491;-43
2022/01/25 08:14:15;;;;;;;14.00;9.80;;;;;;101462.98;;;;106580;1297;63415;-39
2022/01/25 08:16:49;;;;;;;13.90;9.60;;;;;;101462.45;;;;106475;1297;63438;-42
2022/01/25 08:19:19;;;;;;;13.80;9.40;;;;;;101462.56;;;;106592;1297;63480;-33
2022/01/25 08:21:47;;;;;;;12.70;8.90;;;;;;101458.00;;;;106469;1297;66995;-37
2022/01/25 08:24:18;;;;;;;11.00;8.70;;;;;;101450.20;;;;106557;1297;63589;-37
2022/01/25 08:26:46;;;;;;;11.90;9.30;;;;;;101448.96;;;;106578;1296;63316;-42
2022/01/25 08:29:14;;;;;;;12.30;9.20;;;;;;101444.94;;;;106517;1297;63447;-42
2022/01/25 08:31:42;;;;;;;13.20;9.10;;;;;;101442.04;;;;106532;1297;63387;-42
2022/01/25 08:34:11;;;;;;;10.80;8.60;;;;;;101443.47;;;;106587;1297;65516;-42
2022/01/25 08:36:40;;;;;;;12.20;9.80;;;;;;101442.73;;;;106596;1296;63592;-43
2022/01/25 08:39:07;;;;;;;13.00;9.20;;;;;;101441.50;;;;106507;1297;63503;-45
2022/01/25 08:41:35;;;;;;;12.20;9.30;;;;;;101438.02;;;;106433;1299;63373;-44
2022/01/25 08:44:04;;;;;;;14.10;9.20;;;;;;101439.27;;;;106447;1297;63517;-44
2022/01/25 08:46:32;;;;;;;11.80;8.90;;;;;;101442.23;;;;106460;1297;66495;-42
2022/01/25 08:49:00;;;;;;;11.40;8.80;;;;;;101440.52;;;;106559;1297;63392;-42
2022/01/25 08:51:27;;;;;;;11.60;8.30;;;;;;101433.14;;;;106561;1297;63399;-44
2022/01/25 08:53:59;;;;;;;11.60;9.00;;;;;;101425.85;;;;106561;1297;63402;-44
2022/01/25 08:56:26;;;;;;;11.40;9.00;;;;;;101424.61;;;;106598;1297;64215;-44
2022/01/25 08:58:54;;;;;;;11.10;8.70;;;;;;101430.77;;;;106528;1297;65273;-44
2022/01/25 09:01:21;;;;;;;10.60;8.10;;;;;;101424.38;;;;106586;1297;63561;-44
2022/01/25 09:03:49;;;;;;;9.60;7.30;;;;;;101420.55;;;;106237;1297;391463;-44
2022/01/25 09:06:18;;;;;;;10.90;8.10;;;;;;101422.45;;;;106580;1297;63419;-43
2022/01/25 09:08:45;;;;;;;10.90;8.30;;;;;;101423.93;;;;106561;1296;63361;-43
2022/01/25 09:11:12;;;;;;;11.00;7.30;;;;;;101415.36;;;;106594;1297;67365;-47
2022/01/25 09:13:39;;;;;;;10.10;7.70;;;;;;101406.04;;;;106589;1297;63372;-47
2022/01/25 09:16:07;;;;;;;12.00;7.90;;;;;;101407.13;;;;106571;1296;63439;-42
2022/01/25 09:18:36;;;;;;;11.20;8.00;;;;;;101403.69;;;;106572;1297;63483;-42
2022/01/25 09:21:03;;;;;;;10.40;8.00;;;;;;101403.31;;;;106608;1297;63421;-44
2022/01/25 09:23:31;;;;;;;12.30;7.90;;;;;;101403.11;;;;106412;1299;68332;-43
2022/01/25 09:25:58;;;;;;;10.30;8.20;;;;;;101400.98;;;;106576;1297;63582;-43
2022/01/25 09:28:26;;;;;;;11.00;8.40;;;;;;101402.24;;;;106510;1297;63373;-43
2022/01/25 09:30:53;;;;;;;11.60;8.20;;;;;;101403.79;;;;106568;1297;63372;-46
2022/01/25 09:33:23;;;;;;;10.40;8.30;;;;;;101409.42;;;;106593;1296;63362;-47
2022/01/25 09:35:52;;;;;;;10.80;8.20;;;;;;101411.17;;;;106576;1296;65255;-43
2022/01/25 09:38:19;;;;;;;11.10;9.00;;;;;;101415.42;;;;106566;1297;63363;-43
2022/01/25 09:40:47;;;;;;;10.70;8.10;;;;;;101411.16;;;;106562;1297;63407;-47
2022/01/25 09:43:15;;;;;;;10.90;8.00;;;;;;101407.16;;;;106569;1297;63438;-46
2022/01/25 09:45:42;;;;;;;11.90;8.70;;;;;;101410.22;;;;106475;1297;63356;-47
2022/01/25 09:48:10;;;;;;;10.20;7.90;;;;;;101414.16;;;;106583;1297;66815;-46
2022/01/25 09:50:38;;;;;;;11.30;8.00;;;;;;101417.38;;;;106549;1296;63473;-47
2022/01/25 09:53:06;;;;;;;12.20;8.60;;;;;;101414.73;;;;106587;1297;63380;-47
2022/01/25 09:55:39;;;;;;;9.60;7.70;;;;;;101414.97;;;;106508;1297;63426;-47
2022/01/25 09:58:12;;;;;;;;;;;;;;101408.41;;;;106600;1297;63317;-46
2022/01/25 10:00:43;;;;;;;11.10;8.10;;;;;;101403.94;;;;106568;1296;68427;-43
2022/01/25 10:03:35;;;;;;;9.60;7.70;;;;;;101402.23;;;;106544;1296;63483;-43
2022/01/25 10:06:04;;;;;;;10.70;7.90;;;;;;101403.17;;;;106542;1297;63582;-43
2022/01/25 10:08:37;;;;;;;8.80;7.50;;;;;;101400.89;;;;106425;1297;63554;-43
2022/01/25 10:11:08;;;;;;;9.60;7.50;;;;;;101396.60;;;;106471;1297;63364;-43
2022/01/25 10:13:39;;;;;;;9.50;7.40;;;;;;101399.27;;;;106590;1296;66627;-43
2022/01/25 10:16:11;;;;;;;9.70;7.30;;;;;;101395.72;;;;106565;1297;63464;-46
2022/01/25 10:19:10;;;;;;;9.70;7.40;;;;;;101398.02;;;;106570;1296;63561;-46
2022/01/25 10:21:41;;;;;;;8.90;7.00;;;;;;101402.30;;;;106426;1296;63531;-47
2022/01/25 10:24:15;;;;;;;9.80;7.00;;;;;;101401.61;;;;106660;1297;63360;-47
2022/01/25 10:26:55;;;;;;;9.30;6.70;;;;;;101399.27;;;;106638;1297;68312;-47
2022/01/25 10:29:31;;;;;;;9.10;6.60;;;;;;101395.21;;;;106631;1297;63554;-46
2022/01/25 10:32:14;;;;;;;8.80;6.90;;;;;;101392.67;;;;106630;1297;63504;-46
2022/01/25 10:34:47;;;;;;;9.00;6.90;;;;;;101388.39;;;;106516;1297;63474;-46
2022/01/25 10:37:23;;;;;;;9.50;7.20;;;;;;101389.29;;;;106552;1297;63428;-43
2022/01/25 10:39:53;;;;;;;8.70;6.60;;;;;;101391.88;;;;106530;1297;68585;-44
2022/01/25 10:42:21;;;;;;;7.80;6.20;;;;;;101396.91;;;;106576;1297;63523;-35
2022/01/25 10:45:13;;;;;;;8.90;6.50;;;;;;101391.64;;;;106622;1297;63338;-36
2022/01/25 10:47:48;;;;;;;8.40;6.30;;;;;;101383.38;;;;106475;1297;63417;-40
2022/01/25 10:50:34;;;;;;;9.40;6.90;;;;;;101377.69;;;;106549;1297;63434;-41
2022/01/25 10:53:15;;;;;;;8.40;6.30;;;;;;101382.45;;;;106481;1297;68189;-40
2022/01/25 10:55:49;;;;;;;9.60;6.60;;;;;;101384.70;;;;106644;1297;63364;-39
2022/01/25 10:58:17;;;;;;;8.20;6.20;;;;;;101381.85;;;;106650;1297;63434;-40
2022/01/25 11:00:51;;;;;;;8.10;6.40;;;;;;101384.11;;;;106539;1297;63502;-40
2022/01/25 11:03:32;;;;;;;8.20;6.60;;;;;;101381.55;;;;106430;1296;63415;-40
2022/01/25 11:06:17;;;;;;;8.50;6.10;;;;;;101384.77;;;;106661;1296;68730;-40
2022/01/25 11:08:49;;;;;;;7.80;6.30;;;;;;101377.81;;;;106649;1297;63478;-40
2022/01/25 11:11:32;;;;;;;7.80;6.10;;;;;;101377.84;;;;106643;1297;63420;-42
2022/01/25 11:16:52;;;;;;;7.90;5.90;;;;;;101372.97;;;;106502;1297;63407;-46
2022/01/25 11:19:22;;;;;;;7.90;6.00;;;;;;101371.79;;;;106467;1297;65411;-46
2022/01/25 11:21:51;;;;;;;8.90;6.00;;;;;;101370.38;;;;106540;1297;63394;-47
2022/01/25 11:24:20;;;;;;;7.70;6.20;;;;;;101371.16;;;;106451;1300;63405;-46
2022/01/25 11:26:53;;;;;;;7.80;5.70;;;;;;101370.88;;;;106564;1297;63444;-49
2022/01/25 11:29:24;;;;;;;8.20;5.80;;;;;;101371.29;;;;106480;1297;63436;-47
2022/01/25 11:32:03;;;;;;;6.70;5.50;;;;;;101368.62;;;;106449;1297;65570;-43
2022/01/25 11:34:36;;;;;;;7.80;5.40;;;;;;101367.11;;;;106453;1297;63540;-31
2022/01/25 11:37:07;;;;;;;7.80;5.90;;;;;;101363.13;;;;106451;1297;63590;-34
2022/01/25 11:39:50;;;;;;;6.70;5.20;;;;;;101358.48;;;;106465;1297;63826;-38
2022/01/25 11:42:24;;;;;;;7.60;5.30;;;;;;101357.98;;;;106463;1297;63451;-35
2022/01/25 11:44:58;;;;;;;6.60;5.10;;;;;;101357.30;;;;106547;1297;68147;-35
2022/01/25 11:47:37;;;;;;;7.10;5.30;;;;;;101354.54;;;;106454;1297;63963;-42
2022/01/25 11:50:11;;;;;;;9.80;6.20;;;;;;101356.04;;;;106562;1297;63507;-42
2022/01/25 11:52:52;;;;;;;8.10;5.90;;;;;;101351.22;;;;106438;1297;63466;-45
2022/01/25 11:55:23;;;;;;;7.30;5.40;;;;;;101347.23;;;;106471;1297;63513;-45
2022/01/25 11:57:58;;;;;;;7.60;5.40;;;;;;101346.50;;;;106508;1300;67007;-44
2022/01/25 12:00:46;;;;;;;8.00;5.60;;;;;;101344.04;;;;106576;1297;63452;-44
2022/01/25 12:03:41;;;;;;;7.20;4.90;;;;;;101343.30;;;;106552;1297;63838;-44
2022/01/25 12:06:14;;;;;;;7.30;4.90;;;;;;101343.26;;;;106463;1297;63477;-44
2022/01/25 12:11:50;;;;;;;8.00;5.30;;;;;;101347.34;;;;106460;1299;67869;-45
2022/01/25 12:14:27;;;;;;;6.90;4.80;;;;;;101345.77;;;;106448;1297;63550;-45
2022/01/25 12:17:07;;;;;;;7.70;5.20;;;;;;101345.55;;;;106557;1297;63504;-45
2022/01/25 12:19:50;;;;;;;6.50;5.00;;;;;;101344.60;;;;106444;1297;63425;-45
2022/01/25 12:22:40;;;;;;;7.10;4.60;;;;;;101345.56;;;;106535;1297;63454;-45
2022/01/25 12:25:19;;;;;;;6.80;4.50;;;;;;101341.16;;;;106563;1297;68086;-45
2022/01/25 12:27:59;;;;;;;6.80;5.00;;;;;;101340.39;;;;106431;1297;63393;-44
2022/01/25 12:30:43;;;;;;;6.60;4.80;;;;;;101329.74;;;;106270;1300;63807;-45
2022/01/25 12:33:26;;;;;;;7.00;5.00;;;;;;101325.80;;;;106519;1297;63520;-45
2022/01/25 12:36:08;;;;;;;6.70;4.60;;;;;;101326.09;;;;106467;1297;63380;-46
2022/01/25 12:38:43;;;;;;;6.30;4.50;;;;;;101323.30;;;;106561;1296;66836;-44
2022/01/25 12:41:27;;;;;;;6.10;4.50;;;;;;101318.34;;;;106426;1297;63535;-33
2022/01/25 12:44:05;;;;;;;7.10;4.50;;;;;;101315.33;;;;106419;1297;63490;-38
2022/01/25 12:46:40;;;;;;;7.20;4.60;;;;;;101312.81;;;;106538;1297;63289;-37
2022/01/25 12:49:17;;;;;;;7.60;4.70;;;;;;101307.98;;;;106556;1297;63356;-32
2022/01/25 12:51:51;;;;;;;6.60;4.60;;;;;;101318.40;;;;106443;1297;66771;-39
2022/01/25 12:54:18;;;;;;;7.60;4.50;;;;;;101311.41;;;;106455;1297;63425;-43
2022/01/25 12:56:50;;;;;;;7.40;4.80;;;;;;101304.86;;;;106577;1296;63540;-39
2022/01/25 12:59:27;;;;;;;7.50;4.60;;;;;;101308.20;;;;106463;1297;63392;-34
2022/01/25 13:01:58;;;;;;;7.30;4.70;;;;;;101309.35;;;;106440;1297;63442;-33
2022/01/25 13:04:29;;;;;;;7.20;4.60;;;;;;101309.84;;;;106387;1297;66624;-35
2022/01/25 13:06:57;;;;;;;6.50;4.50;;;;;;101308.17;;;;106418;1297;63527;-46
2022/01/25 13:09:35;;;;;;;6.20;4.00;;;;;;101305.88;;;;106585;1297;63416;-43
2022/01/25 13:17:17;;;;;;;6.70;4.90;;;;;;101299.90;;;;106546;1297;69010;-33
2022/01/25 13:19:53;;;;;;;5.90;4.20;;;;;;101295.67;;;;106603;1297;63409;-35
2022/01/25 13:22:37;;;;;;;5.90;4.10;;;;;;101304.95;;;;106543;1296;63401;-33
2022/01/25 13:27:55;;;;;;;6.10;4.10;;;;;;101306.06;;;;106615;1297;63501;-38
2022/01/25 13:30:41;;;;;;;5.90;4.10;;;;;;101305.84;;;;106523;1297;67021;-38
2022/01/25 13:33:17;;;;;;;6.80;4.40;;;;;;101303.27;;;;106626;1297;63482;-40
2022/01/25 13:35:52;;;;;;;6.20;3.80;;;;;;101303.36;;;;106615;1297;63353;-36
2022/01/25 13:38:24;;;;;;;6.40;4.60;;;;;;101301.93;;;;106428;1297;63416;-35
2022/01/25 13:46:42;;;;;;;6.60;4.20;;;;;;101299.75;;;;106526;1297;63518;-36
2022/01/25 13:49:19;;;;;;;6.00;4.00;;;;;;101301.33;;;;106593;1297;63372;-36
2022/01/25 13:51:50;;;;;;;6.50;4.40;;;;;;101301.70;;;;106541;1297;63442;-36
2022/01/25 13:54:29;;;;;;;6.30;4.30;;;;;;101298.42;;;;106615;1296;63408;-36
2022/01/25 13:56:57;;;;;;;5.70;4.00;;;;;;101297.44;;;;106516;1297;68113;-37
2022/01/25 13:59:26;;;;;;;6.50;4.20;;;;;;101296.66;;;;106465;1298;63655;-37
2022/01/25 14:01:53;;;;;;;6.60;4.20;;;;;;101296.30;;;;106480;1297;63497;-37
2022/01/25 14:04:29;;;;;;;6.60;4.40;;;;;;101296.95;;;;106521;1296;63495;-39
2022/01/25 14:07:00;;;;;;;7.50;4.10;;;;;;101300.60;;;;106583;1297;63409;-37
2022/01/25 14:09:35;;;;;;;6.00;4.40;;;;;;101300.35;;;;106593;1297;68546;-36
2022/01/25 14:23:26;;;;;;;6.90;4.30;;;;;;101302.16;;;;106488;1297;67035;-37
2022/01/25 14:26:15;;;;;;;5.90;3.90;;;;;;101297.78;;;;106635;1295;63433;-40
2022/01/25 14:28:46;;;;;;;6.80;4.30;;;;;;101300.27;;;;106622;1297;63410;-35
2022/01/25 14:31:19;;;;;;;6.70;4.30;;;;;;101292.39;;;;106569;1297;63329;-36
2022/01/25 14:33:51;;;;;;;;;;;;;;101297.52;;;;106643;1297;63434;-39
2022/01/25 14:36:20;;;;;;;7.50;4.70;;;;;;101298.97;;;;106633;1296;66840;-34
2022/01/25 14:38:48;;;;;;;6.40;4.50;;;;;;101298.54;;;;106580;1297;63611;-36
2022/01/25 14:41:23;;;;;;;6.30;3.90;;;;;;101304.55;;;;106599;1297;63777;-35
2022/01/25 14:44:02;;;;;;;6.50;4.50;;;;;;101299.91;;;;106590;1296;63468;-35
2022/01/25 14:46:35;;;;;;;6.40;4.00;;;;;;101298.66;;;;106600;1297;63459;-41
2022/01/25 14:49:15;;;;;;;;;;;;;;101297.58;;;;106565;1297;68294;-36
2022/01/25 14:51:52;;;;;;;6.20;4.10;;;;;;101299.73;;;;106563;1297;63467;-40
2022/01/25 14:54:28;;;;;;;6.20;4.20;;;;;;101303.45;;;;106536;1296;63443;-35
2022/01/25 14:56:58;;;;;;;9.10;5.10;;;;;;101303.08;;;;106525;1297;63423;-33
2022/01/25 14:59:46;;;;;;;7.40;4.00;;;;;;101301.61;;;;106638;1296;63488;-39
2022/01/25 15:02:24;;;;;;;6.10;4.30;;;;;;101305.37;;;;106565;1296;66847;-32
2022/01/25 15:04:55;;;;;;;6.60;4.30;;;;;;101306.00;;;;106588;1297;64740;-41